Time;durP1;ratioP1;P1;durP2;ratioP2;P2;SDS_P1;SDS_P2;PMS_P1;PMS_P2;Temp;Humidity;BMP_temperature;BMP_pressure;BME280_temperature;BME280_humidity;BME280_pressure;Samples;Min_cycle;Max_cycle;Signal;HPM_P1;HPM_P2
2022/06/26 00:01:27;;;;;;;1.75;0.98;;;21.20;99.90;;;;;;5054069;28;20228;-78
2022/06/26 00:03:52;;;;;;;1.48;0.93;;;21.20;99.90;;;;;;5025129;28;20193;-77
2022/06/26 00:06:19;;;;;;;9.68;1.63;;;21.20;99.90;;;;;;5032351;28;20657;-77
2022/06/26 00:08:45;;;;;;;1.13;0.60;;;21.20;99.90;;;;;;5034180;28;20576;-76
2022/06/26 00:11:10;;;;;;;0.45;0.45;;;21.20;99.90;;;;;;5033789;28;20194;-73
2022/06/26 00:13:36;;;;;;;0.80;0.70;;;21.20;99.90;;;;;;5032740;28;20632;-75
2022/06/26 00:16:02;;;;;;;5.57;0.95;;;21.20;99.90;;;;;;5036836;28;20222;-77
2022/06/26 00:18:31;;;;;;;0.77;0.60;;;21.20;99.90;;;;;;5061763;28;20199;-76
2022/06/26 00:20:57;;;;;;;0.75;0.65;;;21.20;99.90;;;;;;5072706;28;20568;-77
2022/06/26 00:23:23;;;;;;;0.35;0.35;;;21.30;99.90;;;;;;5072718;28;20205;-73
2022/06/26 00:25:48;;;;;;;0.45;0.45;;;21.30;99.90;;;;;;5073478;28;20199;-74
2022/06/26 00:28:14;;;;;;;1.15;0.75;;;21.20;99.90;;;;;;5071449;28;20232;-74
2022/06/26 00:30:40;;;;;;;1.48;0.93;;;21.20;99.90;;;;;;5073658;28;20188;-75
2022/06/26 00:33:05;;;;;;;0.82;0.77;;;21.20;99.90;;;;;;5072691;28;20185;-74
2022/06/26 00:35:31;;;;;;;1.40;0.98;;;21.20;99.90;;;;;;5073241;28;20272;-76
2022/06/26 00:37:57;;;;;;;0.90;0.60;;;21.20;99.90;;;;;;5072754;28;20295;-75
2022/06/26 00:40:22;;;;;;;0.77;0.77;;;21.20;99.90;;;;;;5084206;28;20196;-74
2022/06/26 00:42:48;;;;;;;1.13;1.02;;;21.20;99.90;;;;;;5090674;28;20260;-74
2022/06/26 00:45:14;;;;;;;0.60;0.60;;;21.10;99.90;;;;;;5092328;28;20245;-75
2022/06/26 00:47:40;;;;;;;0.77;0.65;;;21.10;99.90;;;;;;5091923;28;20334;-76
2022/06/26 00:50:08;;;;;;;2.80;0.80;;;21.10;99.90;;;;;;5093334;28;20196;-75
2022/06/26 00:52:34;;;;;;;3.47;1.23;;;21.00;99.90;;;;;;5092902;28;20248;-76
2022/06/26 00:55:00;;;;;;;0.50;0.50;;;21.00;99.90;;;;;;5081825;28;20236;-73
2022/06/26 00:57:26;;;;;;;1.35;0.77;;;21.00;99.90;;;;;;5072048;28;20668;-75
2022/06/26 00:59:52;;;;;;;0.80;0.60;;;21.00;99.90;;;;;;5072220;28;20200;-75
2022/06/26 01:02:18;;;;;;;0.38;0.38;;;20.90;99.90;;;;;;5071792;28;20197;-71
2022/06/26 01:04:44;;;;;;;1.77;0.95;;;20.90;99.90;;;;;;5071632;28;20219;-69
2022/06/26 01:07:11;;;;;;;1.17;1.08;;;20.90;99.90;;;;;;5071998;28;20223;-71
2022/06/26 01:09:37;;;;;;;0.77;0.68;;;20.90;99.90;;;;;;5071043;28;20196;-73
2022/06/26 01:12:03;;;;;;;0.88;0.70;;;20.90;99.90;;;;;;5070172;28;20729;-71
2022/06/26 01:14:30;;;;;;;0.68;0.68;;;20.80;99.90;;;;;;5065487;28;20243;-72
2022/06/26 01:16:56;;;;;;;0.70;0.70;;;20.80;99.90;;;;;;5050329;28;20593;-73
2022/06/26 01:19:22;;;;;;;0.65;0.65;;;20.80;99.90;;;;;;5051449;28;20186;-70
2022/06/26 01:21:47;;;;;;;0.88;0.57;;;20.80;99.90;;;;;;5050311;28;20252;-73
2022/06/26 01:24:14;;;;;;;0.57;0.57;;;20.80;99.90;;;;;;5054608;28;20197;-72
2022/06/26 01:26:40;;;;;;;0.68;0.63;;;20.70;99.90;;;;;;5054354;28;20202;-72
2022/06/26 01:29:07;;;;;;;1.27;0.88;;;20.80;99.90;;;;;;5054371;28;20216;-71
2022/06/26 01:31:34;;;;;;;0.60;0.60;;;20.70;99.90;;;;;;5055480;28;20668;-73
2022/06/26 01:34:03;;;;;;;0.50;0.50;;;20.70;99.90;;;;;;5055597;28;20640;-72
2022/06/26 01:36:29;;;;;;;1.50;1.00;;;20.70;99.90;;;;;;5077309;28;20246;-71
2022/06/26 01:38:54;;;;;;;0.65;0.65;;;20.70;99.90;;;;;;5095502;28;20212;-71
2022/06/26 01:41:20;;;;;;;0.75;0.60;;;20.70;99.90;;;;;;5094146;28;20946;-72
2022/06/26 01:43:46;;;;;;;1.05;0.93;;;20.70;99.90;;;;;;5096332;28;20196;-71
2022/06/26 01:46:12;;;;;;;0.50;0.50;;;20.70;99.90;;;;;;5095567;28;20192;-73
2022/06/26 01:48:39;;;;;;;0.75;0.65;;;20.70;99.90;;;;;;5095377;28;20208;-72
2022/06/26 01:51:05;;;;;;;1.00;0.90;;;20.70;99.90;;;;;;5086570;28;20189;-73
2022/06/26 01:53:31;;;;;;;2.80;1.25;;;20.70;99.90;;;;;;5073892;28;20296;-72
2022/06/26 01:55:57;;;;;;;1.65;1.10;;;20.70;99.90;;;;;;5075296;28;20224;-71
2022/06/26 01:58:23;;;;;;;1.08;0.95;;;20.70;99.90;;;;;;5074375;28;20201;-72
2022/06/26 02:00:50;;;;;;;1.05;0.85;;;20.70;99.90;;;;;;5066762;28;21893;-72
2022/06/26 02:03:17;;;;;;;1.35;0.73;;;20.80;99.90;;;;;;5055564;28;20190;-71
2022/06/26 02:05:43;;;;;;;1.67;0.98;;;20.80;99.90;;;;;;5055050;28;20660;-70
2022/06/26 02:08:10;;;;;;;1.25;0.80;;;20.60;99.90;;;;;;5054936;28;20675;-71
2022/06/26 02:13:36;;;;;;;1.10;0.90;;;20.40;99.90;;;;;;5075419;28;20191;-71
2022/06/26 02:16:20;;;;;;;0.77;0.55;;;20.40;99.90;;;;;;5074697;28;20217;-72
2022/06/26 02:18:52;;;;;;;0.80;0.80;;;20.30;99.90;;;;;;5074124;28;20207;-72
2022/06/26 02:21:20;;;;;;;0.85;0.85;;;20.40;99.90;;;;;;5075285;28;20747;-71
2022/06/26 02:23:48;;;;;;;0.70;0.70;;;20.50;99.90;;;;;;5073951;28;20268;-72
2022/06/26 02:26:21;;;;;;;0.60;0.60;;;20.50;99.90;;;;;;5074140;28;20268;-72
2022/06/26 02:28:47;;;;;;;0.65;0.65;;;20.60;99.90;;;;;;5074016;28;20209;-72
2022/06/26 02:31:13;;;;;;;1.73;0.85;;;20.60;99.90;;;;;;5075183;28;20189;-73
2022/06/26 02:33:42;;;;;;;0.70;0.60;;;20.60;99.90;;;;;;5054896;28;20267;-73
2022/06/26 02:36:12;;;;;;;0.63;0.63;;;20.70;99.90;;;;;;5053236;28;20686;-73
2022/06/26 02:38:47;;;;;;;0.50;0.50;;;20.70;99.90;;;;;;5055046;28;20209;-73
2022/06/26 02:41:13;;;;;;;0.80;0.70;;;20.80;99.90;;;;;;5053504;28;20663;-72
2022/06/26 02:43:38;;;;;;;1.52;1.15;;;20.80;99.90;;;;;;5053196;28;20540;-71
2022/06/26 02:46:04;;;;;;;0.82;0.70;;;20.80;99.90;;;;;;5053803;28;20494;-71
2022/06/26 02:48:30;;;;;;;1.05;0.80;;;20.80;99.90;;;;;;5070175;28;20235;-71
2022/06/26 02:50:56;;;;;;;1.17;1.08;;;20.80;99.90;;;;;;5074171;28;20728;-72
2022/06/26 02:53:22;;;;;;;0.65;0.63;;;20.90;99.90;;;;;;5074568;28;20196;-72
2022/06/26 02:55:51;;;;;;;1.15;1.00;;;20.90;99.90;;;;;;5076582;28;20192;-71
2022/06/26 02:58:16;;;;;;;2.45;1.13;;;21.00;99.90;;;;;;5076875;28;20232;-74
2022/06/26 03:00:47;;;;;;;1.25;0.90;;;21.00;99.90;;;;;;5074335;28;20197;-73
2022/06/26 03:03:12;;;;;;;0.95;0.90;;;21.10;99.90;;;;;;5054812;28;20617;-71
2022/06/26 03:05:39;;;;;;;1.58;1.10;;;21.10;99.90;;;;;;5058234;28;20196;-72
2022/06/26 03:08:04;;;;;;;1.38;1.02;;;21.10;99.90;;;;;;5057311;28;20241;-71
2022/06/26 03:10:30;;;;;;;1.20;0.85;;;21.10;99.90;;;;;;5051886;28;20193;-72
2022/06/26 03:12:56;;;;;;;1.27;0.88;;;21.20;99.90;;;;;;5053332;28;20197;-71
2022/06/26 03:15:22;;;;;;;1.40;0.88;;;21.20;99.90;;;;;;5053032;28;20193;-71
2022/06/26 03:17:48;;;;;;;0.63;0.63;;;21.20;99.90;;;;;;5051629;28;20614;-71
2022/06/26 03:20:17;;;;;;;2.25;1.02;;;21.30;99.90;;;;;;5053558;28;20695;-72
2022/06/26 03:22:43;;;;;;;0.80;0.73;;;21.30;99.90;;;;;;5052307;28;20194;-73
2022/06/26 03:25:10;;;;;;;1.23;1.00;;;21.30;99.90;;;;;;5052304;28;20197;-72
2022/06/26 03:27:36;;;;;;;1.27;0.88;;;21.40;99.90;;;;;;5053143;28;20197;-73
2022/06/26 03:30:04;;;;;;;0.93;0.80;;;21.40;99.90;;;;;;5051661;28;20292;-71
2022/06/26 03:32:30;;;;;;;1.02;0.93;;;21.40;99.90;;;;;;5051548;28;20196;-72
2022/06/26 03:34:56;;;;;;;1.02;0.88;;;21.50;99.90;;;;;;5051267;28;20190;-72
2022/06/26 03:37:22;;;;;;;0.82;0.73;;;21.50;99.90;;;;;;5052614;28;20220;-71
2022/06/26 03:39:48;;;;;;;0.80;0.80;;;21.50;99.90;;;;;;5051496;28;20251;-71
2022/06/26 03:42:13;;;;;;;0.88;0.73;;;21.50;99.90;;;;;;5053070;28;20596;-70
2022/06/26 03:44:39;;;;;;;0.88;0.63;;;21.60;99.90;;;;;;5067829;28;20288;-72
2022/06/26 03:47:05;;;;;;;2.22;1.17;;;21.70;99.90;;;;;;5072602;28;20606;-72
2022/06/26 03:49:31;;;;;;;1.00;0.88;;;21.70;99.90;;;;;;5071289;28;20634;-71
2022/06/26 03:51:57;;;;;;;2.70;1.02;;;21.70;99.90;;;;;;5071488;28;20394;-71
2022/06/26 03:54:25;;;;;;;0.63;0.55;;;21.80;99.90;;;;;;5072615;28;20264;-72
2022/06/26 03:56:52;;;;;;;1.00;0.90;;;21.90;99.90;;;;;;5071035;28;20193;-72
2022/06/26 03:59:17;;;;;;;2.90;1.38;;;22.00;99.90;;;;;;5072564;28;20239;-72
2022/06/26 04:01:43;;;;;;;0.55;0.55;;;21.90;99.90;;;;;;5070776;28;20686;-71
2022/06/26 04:04:09;;;;;;;2.85;1.33;;;21.90;99.90;;;;;;5058980;28;20197;-72
2022/06/26 04:06:35;;;;;;;2.58;1.40;;;22.00;99.90;;;;;;5059575;28;20201;-72
2022/06/26 04:09:00;;;;;;;1.98;1.10;;;22.20;99.90;;;;;;5050808;28;20263;-72
2022/06/26 04:11:26;;;;;;;1.10;1.00;;;22.30;99.90;;;;;;5052095;28;20419;-72
2022/06/26 04:13:52;;;;;;;0.80;0.80;;;22.30;99.90;;;;;;5051471;28;20194;-72
2022/06/26 04:16:18;;;;;;;1.90;1.33;;;22.10;99.90;;;;;;5051425;28;20236;-71
2022/06/26 04:18:47;;;;;;;1.00;0.90;;;21.90;99.90;;;;;;5052231;28;20198;-72
2022/06/26 04:21:13;;;;;;;0.85;0.65;;;21.80;99.90;;;;;;5051263;28;20204;-72
2022/06/26 04:23:39;;;;;;;3.40;1.38;;;21.50;99.90;;;;;;5069229;28;20667;-71
2022/06/26 04:26:05;;;;;;;1.65;0.95;;;21.50;99.90;;;;;;5089790;28;20239;-71
2022/06/26 04:28:31;;;;;;;1.15;1.00;;;21.50;99.90;;;;;;5091861;28;20286;-71
2022/06/26 04:30:57;;;;;;;1.75;1.08;;;21.50;99.90;;;;;;5091991;28;20188;-72
2022/06/26 04:33:23;;;;;;;0.93;0.90;;;21.50;99.90;;;;;;5090696;28;20219;-71
2022/06/26 04:35:48;;;;;;;1.05;0.70;;;21.50;99.90;;;;;;5092368;28;20230;-71
2022/06/26 04:38:14;;;;;;;0.95;0.65;;;21.70;99.90;;;;;;5092287;28;20193;-72
2022/06/26 04:40:40;;;;;;;0.68;0.68;;;22.00;99.90;;;;;;5062727;28;20204;-71
2022/06/26 04:43:06;;;;;;;1.58;1.27;;;22.30;99.90;;;;;;5050571;28;20205;-73
2022/06/26 04:45:35;;;;;;;0.82;0.82;;;22.60;99.90;;;;;;5050711;28;20208;-72
2022/06/26 04:48:01;;;;;;;0.90;0.80;;;22.80;99.90;;;;;;5052029;28;20256;-71
2022/06/26 04:50:27;;;;;;;1.17;0.73;;;23.00;99.90;;;;;;5050597;28;20648;-72
2022/06/26 04:52:52;;;;;;;1.73;1.23;;;23.10;99.90;;;;;;5051906;28;20247;-72
2022/06/26 04:55:18;;;;;;;3.28;1.52;;;23.20;99.90;;;;;;5050148;28;20668;-72
2022/06/26 04:57:44;;;;;;;0.90;0.73;;;22.90;99.90;;;;;;5052539;28;20186;-74
2022/06/26 05:00:12;;;;;;;0.93;0.77;;;22.90;99.90;;;;;;5067277;28;20276;-74
2022/06/26 05:02:39;;;;;;;0.65;0.65;;;23.10;99.90;;;;;;5075148;28;20196;-73
2022/06/26 05:05:05;;;;;;;0.65;0.65;;;23.00;99.90;;;;;;5076521;28;20319;-74
2022/06/26 05:07:32;;;;;;;2.17;1.10;;;23.00;99.90;;;;;;5056004;28;20202;-74
2022/06/26 05:09:58;;;;;;;1.67;1.05;;;22.90;99.90;;;;;;5055934;28;20230;-72
2022/06/26 05:12:24;;;;;;;1.17;1.05;;;23.00;99.90;;;;;;5054502;28;20198;-72
2022/06/26 05:14:50;;;;;;;1.30;1.17;;;23.00;99.90;;;;;;5055403;28;20189;-71
2022/06/26 05:17:16;;;;;;;1.40;1.02;;;23.10;99.90;;;;;;5041465;28;20232;-72
2022/06/26 05:19:41;;;;;;;1.35;1.25;;;23.30;99.90;;;;;;5018150;28;20284;-71
2022/06/26 05:22:07;;;;;;;1.77;1.40;;;23.50;99.90;;;;;;5017848;28;20202;-71
2022/06/26 05:24:33;;;;;;;1.13;0.98;;;23.50;99.90;;;;;;5035706;28;20198;-71
2022/06/26 05:26:59;;;;;;;1.58;1.27;;;23.50;99.90;;;;;;5035992;28;20190;-71
2022/06/26 05:29:28;;;;;;;0.70;0.70;;;23.60;99.90;;;;;;5017968;28;20575;-71
2022/06/26 05:31:54;;;;;;;1.77;1.10;;;23.80;99.90;;;;;;5035629;28;20601;-71
2022/06/26 05:34:20;;;;;;;0.98;0.98;;;23.90;99.90;;;;;;5017695;28;20191;-73
2022/06/26 05:36:46;;;;;;;1.15;0.77;;;24.00;99.90;;;;;;5047844;28;20190;-72
2022/06/26 05:39:11;;;;;;;1.65;1.50;;;24.00;99.90;;;;;;5055749;28;20197;-72
2022/06/26 05:41:37;;;;;;;0.93;0.85;;;23.80;99.90;;;;;;5037072;28;20233;-73
2022/06/26 05:44:03;;;;;;;1.42;0.98;;;23.70;99.90;;;;;;5055194;28;20231;-72
2022/06/26 05:46:29;;;;;;;1.20;1.10;;;23.80;99.90;;;;;;5055260;28;20204;-72
2022/06/26 05:48:55;;;;;;;1.42;0.63;;;23.80;99.90;;;;;;5037119;28;20216;-72
2022/06/26 05:51:21;;;;;;;1.50;1.13;;;24.00;99.90;;;;;;5037015;28;20198;-72
2022/06/26 05:53:47;;;;;;;1.58;1.27;;;24.10;99.90;;;;;;5037297;28;20200;-72
2022/06/26 05:56:13;;;;;;;1.30;1.20;;;24.00;99.90;;;;;;5027491;28;20198;-74
2022/06/26 05:58:39;;;;;;;1.48;1.38;;;24.20;99.90;;;;;;5034935;28;20217;-73
2022/06/26 06:01:05;;;;;;;1.35;0.82;;;24.30;99.90;;;;;;5035364;28;20190;-71
2022/06/26 06:03:31;;;;;;;1.52;1.30;;;24.40;99.90;;;;;;5034736;28;20207;-73
2022/06/26 06:06:00;;;;;;;3.20;1.23;;;24.50;99.90;;;;;;5020560;28;20194;-72
2022/06/26 06:08:27;;;;;;;1.48;1.15;;;24.60;99.90;;;;;;5034505;28;20265;-72
2022/06/26 06:10:52;;;;;;;0.47;0.47;;;24.70;99.90;;;;;;5035108;28;20221;-73
2022/06/26 06:13:18;;;;;;;1.02;0.90;;;24.60;99.90;;;;;;5034731;28;20233;-72
2022/06/26 06:15:44;;;;;;;1.58;1.20;;;24.60;99.90;;;;;;5016647;28;20190;-73
2022/06/26 06:18:11;;;;;;;1.50;1.33;;;24.40;99.90;;;;;;5048918;28;20213;-71
2022/06/26 06:20:37;;;;;;;1.50;1.17;;;24.60;99.90;;;;;;5054564;28;20190;-73
2022/06/26 06:23:06;;;;;;;2.55;0.90;;;25.00;99.90;;;;;;5036165;28;20213;-72
2022/06/26 06:25:33;;;;;;;1.98;1.30;;;25.10;99.90;;;;;;5036851;28;20711;-73
2022/06/26 06:28:00;;;;;;;1.80;0.90;;;25.30;99.90;;;;;;5054384;28;20656;-73
2022/06/26 06:30:26;;;;;;;1.17;0.98;;;25.40;99.90;;;;;;5054645;28;20196;-73
2022/06/26 06:32:53;;;;;;;1.42;1.10;;;25.80;99.90;;;;;;5042276;28;20281;-73
2022/06/26 06:35:19;;;;;;;15.85;1.67;;;26.10;99.90;;;;;;5034214;28;20186;-74
2022/06/26 06:37:45;;;;;;;1.42;1.17;;;26.40;99.90;;;;;;5016839;28;20668;-73
2022/06/26 06:40:12;;;;;;;4.03;1.50;;;26.40;99.90;;;;;;5034675;28;20229;-74
2022/06/26 06:42:39;;;;;;;2.47;1.35;;;26.50;99.90;;;;;;5016610;28;20202;-74
2022/06/26 06:45:06;;;;;;;0.90;0.88;;;26.70;99.90;;;;;;5016797;28;20234;-73
2022/06/26 06:47:31;;;;;;;1.23;1.13;;;26.80;99.90;;;;;;5016347;28;20197;-73
2022/06/26 06:49:57;;;;;;;1.33;0.90;;;26.50;99.90;;;;;;5016467;28;20220;-73
2022/06/26 06:52:23;;;;;;;0.82;0.82;;;26.60;99.90;;;;;;5034027;28;20201;-73
2022/06/26 06:54:49;;;;;;;1.20;1.00;;;26.40;99.90;;;;;;5016623;28;20198;-74
2022/06/26 06:57:15;;;;;;;1.42;0.95;;;26.10;99.90;;;;;;5034036;28;20541;-73
2022/06/26 06:59:40;;;;;;;1.27;0.70;;;26.20;99.90;;;;;;5015618;28;20229;-73
2022/06/26 07:02:07;;;;;;;1.10;1.00;;;26.30;99.90;;;;;;5034372;28;20255;-75
2022/06/26 07:04:32;;;;;;;0.80;0.68;;;26.40;99.90;;;;;;5034111;28;20186;-73
2022/06/26 07:06:58;;;;;;;1.17;1.02;;;26.60;99.90;;;;;;5049398;28;20627;-74
2022/06/26 07:09:24;;;;;;;0.77;0.77;;;26.80;99.90;;;;;;5036038;28;20213;-73
2022/06/26 07:11:50;;;;;;;1.90;0.88;;;27.00;99.90;;;;;;5054114;28;20282;-73
2022/06/26 07:14:16;;;;;;;1.80;1.08;;;27.20;99.90;;;;;;5023046;28;20202;-74
2022/06/26 07:16:42;;;;;;;2.08;0.98;;;27.60;99.90;;;;;;5031333;28;20656;-73
2022/06/26 07:19:07;;;;;;;3.55;1.15;;;27.90;99.90;;;;;;5052890;28;20293;-74
2022/06/26 07:21:36;;;;;;;1.05;0.98;;;27.90;99.90;;;;;;5051761;28;20547;-73
2022/06/26 07:24:02;;;;;;;3.55;1.52;;;27.60;99.90;;;;;;5052581;28;20664;-74
2022/06/26 07:26:28;;;;;;;1.92;1.05;;;27.40;99.90;;;;;;5052469;28;20201;-74
2022/06/26 07:28:54;;;;;;;1.27;1.17;;;27.40;99.90;;;;;;5063888;28;20203;-72
2022/06/26 07:31:20;;;;;;;1.33;0.95;;;27.60;99.90;;;;;;5072106;28;20271;-73
2022/06/26 07:36:30;;;;;;;1.48;1.08;;;27.80;99.90;;;;;;5073901;28;20250;-73
2022/06/26 07:38:56;;;;;;;1.30;1.20;;;28.00;99.90;;;;;;5071948;28;20694;-72
2022/06/26 07:41:21;;;;;;;1.00;0.90;;;28.00;99.90;;;;;;5072469;28;20200;-74
2022/06/26 07:43:48;;;;;;;0.80;0.75;;;27.90;99.90;;;;;;5072356;28;20247;-74
2022/06/26 07:46:14;;;;;;;2.10;0.90;;;27.90;99.90;;;;;;5073600;28;20196;-74
2022/06/26 07:48:40;;;;;;;0.80;0.80;;;27.90;99.90;;;;;;5072199;28;20558;-74
2022/06/26 07:51:06;;;;;;;1.17;0.80;;;28.10;99.90;;;;;;5073343;28;20215;-74
2022/06/26 07:53:32;;;;;;;1.20;1.10;;;28.30;99.90;;;;;;5073577;28;20666;-73
2022/06/26 07:55:58;;;;;;;1.15;0.85;;;28.60;99.90;;;;;;5073835;28;20200;-74
2022/06/26 07:58:25;;;;;;;0.77;0.77;;;28.70;99.90;;;;;;5072600;28;20202;-73
2022/06/26 08:00:52;;;;;;;0.70;0.70;;;29.00;99.90;;;;;;5073063;28;20190;-73
2022/06/26 08:03:20;;;;;;;1.42;0.80;;;28.90;99.90;;;;;;5071800;28;20242;-72
2022/06/26 08:05:47;;;;;;;0.82;0.65;;;28.70;99.90;;;;;;5067587;28;20205;-74
2022/06/26 08:08:17;;;;;;;0.80;0.57;;;28.60;99.90;;;;;;5066802;28;20717;-72
2022/06/26 08:10:42;;;;;;;0.60;0.60;;;28.80;99.90;;;;;;5056251;28;20208;-74
2022/06/26 08:13:12;;;;;;;1.05;0.68;;;28.80;99.90;;;;;;5053117;28;20640;-73
2022/06/26 08:15:41;;;;;;;0.60;0.60;;;28.90;99.90;;;;;;5054028;28;20196;-74
2022/06/26 08:18:21;;;;;;;0.50;0.40;;;28.90;99.90;;;;;;5034914;28;20650;-73
2022/06/26 08:20:50;;;;;;;1.02;0.63;;;28.40;99.90;;;;;;5034981;28;20193;-73
2022/06/26 08:23:22;;;;;;;0.60;0.60;;;28.50;99.90;;;;;;5016282;28;20240;-74
2022/06/26 08:25:49;;;;;;;0.70;0.50;;;28.40;99.90;;;;;;5031551;28;20193;-73
2022/06/26 08:28:18;;;;;;;0.77;0.75;;;28.40;99.90;;;;;;5054016;28;20201;-72
2022/06/26 08:30:48;;;;;;;1.35;1.00;;;28.70;99.90;;;;;;5035476;28;20205;-73
2022/06/26 08:33:21;;;;;;;4.32;1.23;;;28.40;99.90;;;;;;5052989;28;20596;-72
2022/06/26 08:35:47;;;;;;;1.02;0.68;;;28.60;99.90;;;;;;5036283;28;20262;-72
2022/06/26 08:38:16;;;;;;;0.88;0.65;;;28.80;99.60;;;;;;5034544;28;20205;-72
2022/06/26 08:40:43;;;;;;;1.13;0.57;;;29.10;99.90;;;;;;5052585;28;20249;-72
2022/06/26 08:43:11;;;;;;;0.43;0.43;;;29.10;99.90;;;;;;5052210;28;20201;-72
2022/06/26 08:45:41;;;;;;;0.70;0.68;;;28.90;97.90;;;;;;5033876;28;20204;-72
2022/06/26 08:48:12;;;;;;;1.55;0.70;;;29.10;99.90;;;;;;5052463;28;20189;-72
2022/06/26 08:50:42;;;;;;;1.48;1.08;;;29.50;99.90;;;;;;5034580;28;20227;-73
2022/06/26 08:53:14;;;;;;;0.45;0.45;;;29.30;99.80;;;;;;5052634;28;20181;-72
2022/06/26 08:55:40;;;;;;;9.85;1.27;;;29.30;98.40;;;;;;5034258;28;20212;-73
2022/06/26 08:58:09;;;;;;;1.70;1.30;;;29.20;97.20;;;;;;5035676;28;20582;-74
2022/06/26 09:00:46;;;;;;;0.85;0.70;;;29.40;99.20;;;;;;5035209;28;20197;-74
2022/06/26 09:03:13;;;;;;;0.57;0.57;;;29.40;97.20;;;;;;5035978;28;20192;-73
2022/06/26 09:05:40;;;;;;;0.60;0.60;;;29.50;99.10;;;;;;5034787;28;20205;-73
2022/06/26 09:08:20;;;;;;;0.60;0.60;;;30.00;97.30;;;;;;5053048;28;20204;-73
2022/06/26 09:10:52;;;;;;;0.75;0.55;;;30.00;96.30;;;;;;5053471;28;20193;-74
2022/06/26 09:13:24;;;;;;;0.60;0.60;;;30.20;93.30;;;;;;5035151;28;20203;-74
2022/06/26 09:15:59;;;;;;;0.43;0.43;;;29.80;92.70;;;;;;5052003;28;20592;-72
2022/06/26 09:18:40;;;;;;;0.57;0.57;;;30.00;94.80;;;;;;5034038;28;20211;-73
2022/06/26 09:21:11;;;;;;;0.35;0.30;;;30.00;90.80;;;;;;5034045;28;20204;-73
2022/06/26 09:23:55;;;;;;;0.90;0.43;;;30.40;91.60;;;;;;5052208;28;20201;-74
2022/06/26 09:26:30;;;;;;;0.43;0.43;;;30.30;94.50;;;;;;5051950;28;20201;-73
2022/06/26 09:29:08;;;;;;;1.65;0.77;;;30.70;90.20;;;;;;5034174;28;20212;-74
2022/06/26 09:31:40;;;;;;;0.57;0.57;;;30.60;87.30;;;;;;5034794;28;20232;-73
2022/06/26 09:34:07;;;;;;;0.50;0.50;;;30.30;88.50;;;;;;5034178;28;20207;-73
2022/06/26 09:36:34;;;;;;;0.70;0.52;;;30.90;88.40;;;;;;5034341;28;20280;-72
2022/06/26 09:39:00;;;;;;;1.45;0.47;;;31.10;90.10;;;;;;5034048;28;20226;-73
2022/06/26 09:41:34;;;;;;;2.90;0.85;;;31.00;90.00;;;;;;5040466;28;20200;-73
2022/06/26 09:44:06;;;;;;;0.80;0.43;;;30.80;82.10;;;;;;5015944;28;20234;-73
2022/06/26 09:46:34;;;;;;;0.93;0.63;;;30.50;85.20;;;;;;5018888;28;20572;-73
2022/06/26 09:49:00;;;;;;;0.40;0.40;;;30.60;85.00;;;;;;5017731;28;20292;-72
2022/06/26 09:51:27;;;;;;;0.60;0.43;;;31.10;84.50;;;;;;5034934;28;20304;-72
2022/06/26 09:53:56;;;;;;;0.55;0.55;;;31.20;85.50;;;;;;5035393;28;20232;-74
2022/06/26 09:56:22;;;;;;;1.30;0.77;;;31.50;85.30;;;;;;5017310;28;20619;-72
2022/06/26 09:58:51;;;;;;;1.20;0.50;;;31.50;85.30;;;;;;5017468;28;20203;-72
2022/06/26 10:06:49;;;;;;;1.15;0.60;;;31.40;79.80;;;;;;5048664;28;20285;-73
2022/06/26 10:09:17;;;;;;;0.95;0.73;;;31.40;79.60;;;;;;5054807;28;20667;-74
2022/06/26 10:11:45;;;;;;;1.15;0.60;;;31.20;80.50;;;;;;5037003;28;20615;-74
2022/06/26 10:14:23;;;;;;;1.05;0.80;;;31.40;84.10;;;;;;5054972;28;20215;-74
2022/06/26 10:17:20;;;;;;;1.25;0.70;;;31.50;80.20;;;;;;5053101;28;20224;-74
2022/06/26 10:19:52;;;;;;;0.60;0.57;;;31.10;80.70;;;;;;5073994;28;20546;-73
2022/06/26 10:22:18;;;;;;;0.80;0.80;;;31.30;81.30;;;;;;5075008;28;20224;-74
2022/06/26 10:24:52;;;;;;;0.88;0.80;;;31.60;81.30;;;;;;5074293;28;20223;-73
2022/06/26 10:27:24;;;;;;;1.00;0.80;;;31.50;79.00;;;;;;5075015;28;20203;-73
2022/06/26 10:29:50;;;;;;;1.58;0.90;;;32.10;83.80;;;;;;5073138;28;20604;-73
2022/06/26 10:32:23;;;;;;;3.53;1.10;;;32.50;85.20;;;;;;5073690;28;20195;-74
2022/06/26 10:34:59;;;;;;;1.08;0.77;;;32.90;84.50;;;;;;5074840;28;20272;-73
2022/06/26 10:37:42;;;;;;;1.65;0.60;;;32.40;82.80;;;;;;5063943;28;20709;-74
2022/06/26 10:43:19;;;;;;;0.52;0.52;;;32.30;82.00;;;;;;5054983;28;20562;-73
2022/06/26 10:45:45;;;;;;;0.95;0.80;;;32.20;82.10;;;;;;5053464;28;20197;-73
2022/06/26 10:48:26;;;;;;;1.15;0.70;;;32.20;83.90;;;;;;5053605;28;20512;-72
2022/06/26 10:51:10;;;;;;;0.47;0.47;;;31.90;82.80;;;;;;5054859;28;20197;-74
2022/06/26 10:53:39;;;;;;;1.58;1.05;;;32.40;86.80;;;;;;5053238;28;20334;-73
2022/06/26 10:56:16;;;;;;;1.27;0.90;;;32.50;85.90;;;;;;5062034;28;20730;-74
2022/06/26 10:58:49;;;;;;;1.42;0.75;;;32.60;81.40;;;;;;5073255;28;20615;-73
2022/06/26 11:01:17;;;;;;;0.65;0.57;;;32.10;82.20;;;;;;5074239;28;20605;-74
2022/06/26 11:03:43;;;;;;;2.35;0.98;;;32.50;86.60;;;;;;5072716;28;20204;-74
2022/06/26 11:06:15;;;;;;;1.77;0.98;;;32.80;83.10;;;;;;5065637;28;20201;-74
2022/06/26 11:08:46;;;;;;;1.00;0.80;;;32.50;79.80;;;;;;5053450;28;20217;-74
2022/06/26 11:11:14;;;;;;;0.43;0.40;;;32.50;83.30;;;;;;5053652;28;20208;-74
2022/06/26 11:13:57;;;;;;;0.88;0.77;;;33.00;85.50;;;;;;5061053;28;20188;-74
2022/06/26 11:16:33;;;;;;;2.75;0.88;;;33.30;84.30;;;;;;5067331;28;20717;-74
2022/06/26 11:19:03;;;;;;;0.68;0.68;;;33.40;82.00;;;;;;5035966;28;20198;-74
2022/06/26 11:21:29;;;;;;;0.65;0.60;;;33.60;84.60;;;;;;5053496;28;20326;-74
2022/06/26 11:23:56;;;;;;;0.93;0.60;;;34.00;80.20;;;;;;5054289;28;20213;-74
2022/06/26 11:26:23;;;;;;;2.70;1.08;;;34.20;79.60;;;;;;5053534;28;20197;-74
2022/06/26 11:29:03;;;;;;;0.50;0.50;;;34.30;79.60;;;;;;5054244;28;20204;-74
2022/06/26 11:31:32;;;;;;;1.33;0.68;;;34.30;79.30;;;;;;5053155;28;20266;-74
2022/06/26 11:34:12;;;;;;;1.08;0.77;;;34.20;80.10;;;;;;5036178;28;20239;-73
2022/06/26 11:36:59;;;;;;;0.75;0.63;;;34.20;83.30;;;;;;5035771;28;21594;-74
2022/06/26 11:39:39;;;;;;;1.00;0.70;;;34.50;80.50;;;;;;5035779;28;20272;-73
2022/06/26 11:42:27;;;;;;;1.00;0.52;;;34.30;76.60;;;;;;5036033;28;20207;-75
2022/06/26 11:44:53;;;;;;;0.57;0.47;;;34.60;80.50;;;;;;5053050;28;20200;-72
2022/06/26 11:47:21;;;;;;;0.98;0.75;;;35.00;78.60;;;;;;5053224;28;20185;-73
2022/06/26 11:49:47;;;;;;;1.05;0.90;;;34.20;76.80;;;;;;5053251;28;20212;-73
2022/06/26 11:52:14;;;;;;;0.88;0.75;;;33.80;77.60;;;;;;5053482;28;20729;-74
2022/06/26 11:54:40;;;;;;;0.57;0.55;;;33.60;77.50;;;;;;5029443;28;20289;-74
2022/06/26 11:57:08;;;;;;;0.40;0.40;;;33.30;81.40;;;;;;5033388;28;20217;-74
2022/06/26 11:59:41;;;;;;;1.13;0.70;;;33.50;80.50;;;;;;5032856;28;20558;-74
2022/06/26 12:02:20;;;;;;;0.45;0.43;;;33.70;77.80;;;;;;5015911;28;20205;-73
2022/06/26 12:05:01;;;;;;;0.57;0.52;;;33.90;76.00;;;;;;5015047;28;20702;-74
2022/06/26 12:07:39;;;;;;;0.75;0.68;;;34.30;80.80;;;;;;5033254;28;20197;-73
2022/06/26 12:10:05;;;;;;;0.65;0.30;;;34.00;74.70;;;;;;5033176;28;20204;-73
2022/06/26 12:12:49;;;;;;;0.85;0.75;;;33.60;75.00;;;;;;5033608;28;20661;-73
2022/06/26 12:15:16;;;;;;;0.70;0.70;;;33.70;74.00;;;;;;5015203;28;20190;-74
2022/06/26 12:17:50;;;;;;;1.05;0.50;;;33.60;77.50;;;;;;5032615;28;20668;-73
2022/06/26 12:20:19;;;;;;;0.40;0.40;;;33.60;70.10;;;;;;5032967;28;20189;-73
2022/06/26 12:22:54;;;;;;;1.30;0.80;;;33.60;73.40;;;;;;5016538;28;20202;-73
2022/06/26 12:25:29;;;;;;;0.45;0.45;;;33.20;70.90;;;;;;5015666;28;20604;-74
2022/06/26 12:27:56;;;;;;;1.50;0.75;;;33.50;69.10;;;;;;5034070;28;20187;-73
2022/06/26 12:30:26;;;;;;;1.88;0.88;;;32.80;66.00;;;;;;5028671;28;20205;-74
2022/06/26 12:32:52;;;;;;;0.70;0.63;;;32.00;70.00;;;;;;5036173;28;20229;-72
2022/06/26 12:35:18;;;;;;;0.50;0.50;;;31.50;73.20;;;;;;5052195;28;20675;-72
2022/06/26 12:37:44;;;;;;;0.57;0.50;;;31.30;72.30;;;;;;5034351;28;20667;-73
2022/06/26 12:40:11;;;;;;;0.77;0.60;;;31.40;71.70;;;;;;5034687;28;20611;-73
2022/06/26 12:42:37;;;;;;;0.77;0.70;;;31.80;73.40;;;;;;5034427;28;20361;-74
2022/06/26 12:45:04;;;;;;;1.60;0.68;;;32.60;72.40;;;;;;5035461;28;20646;-73
2022/06/26 12:47:36;;;;;;;0.85;0.47;;;33.20;70.50;;;;;;5035800;28;20247;-74
2022/06/26 12:50:02;;;;;;;0.43;0.35;;;33.30;65.80;;;;;;5034373;28;20216;-72
2022/06/26 12:52:28;;;;;;;1.58;0.63;;;33.70;72.80;;;;;;5033772;28;20220;-72
2022/06/26 12:54:54;;;;;;;1.42;0.77;;;33.80;72.30;;;;;;5015317;28;20190;-73
2022/06/26 12:57:20;;;;;;;0.80;0.68;;;33.90;68.60;;;;;;5032749;28;20217;-73
2022/06/26 12:59:46;;;;;;;1.88;0.75;;;34.60;68.90;;;;;;5015331;28;20201;-72
2022/06/26 13:02:12;;;;;;;1.40;0.60;;;35.20;70.60;;;;;;5032638;28;20620;-73
2022/06/26 13:04:41;;;;;;;0.75;0.40;;;35.00;63.90;;;;;;5016067;28;20209;-74
2022/06/26 13:07:07;;;;;;;1.17;0.77;;;34.50;66.30;;;;;;5049154;28;20197;-73